Time;durP1;ratioP1;P1;durP2;ratioP2;P2;SDS_P1;SDS_P2;PMS_P1;PMS_P2;Temp;Humidity;BMP_temperature;BMP_pressure;BME280_temperature;BME280_humidity;BME280_pressure;Samples;Min_cycle;Max_cycle;Signal;HPM_P1;HPM_P2
2023/01/06 00:00:26;;;;;;;10.67;6.07;;;;;;;9.53;100.00;101748.72;5255626;28;20057;-72
2023/01/06 00:02:57;;;;;;;11.13;6.27;;;;;;;9.57;100.00;101745.03;5251132;28;20056;-72
2023/01/06 00:05:29;;;;;;;9.20;5.17;;;;;;;9.54;100.00;101746.03;5249062;28;20056;-72
2023/01/06 00:08:00;;;;;;;12.97;6.73;;;;;;;9.51;100.00;101742.69;5254252;28;20052;-72
2023/01/06 00:10:32;;;;;;;10.63;6.40;;;;;;;9.55;100.00;101736.41;5283865;28;20024;-73
2023/01/06 00:13:03;;;;;;;10.93;5.43;;;;;;;9.58;100.00;101735.44;5286492;28;20131;-72
2023/01/06 00:15:36;;;;;;;9.37;5.13;;;;;;;9.56;100.00;101732.88;5253909;28;20041;-72
2023/01/06 00:18:07;;;;;;;11.63;5.40;;;;;;;9.55;100.00;101732.03;5255541;28;20118;-71
2023/01/06 00:20:39;;;;;;;10.87;4.57;;;;;;;9.55;100.00;101723.31;5252177;28;20025;-72
2023/01/06 00:23:10;;;;;;;8.33;4.17;;;;;;;9.51;100.00;101711.31;5252346;28;20032;-72
2023/01/06 00:25:49;;;;;;;9.97;4.57;;;;;;;9.61;100.00;101717.84;5255452;28;20036;-72
2023/01/06 00:28:20;;;;;;;13.57;5.03;;;;;;;9.60;100.00;101731.00;5254192;28;20029;-73
2023/01/06 00:30:52;;;;;;;7.90;4.10;;;;;;;9.61;100.00;101730.06;5252735;28;20021;-72
2023/01/06 00:33:24;;;;;;;13.07;5.47;;;;;;;9.56;100.00;101722.44;5253714;28;20033;-73
2023/01/06 00:35:58;;;;;;;9.67;4.93;;;;;;;9.60;100.00;101718.75;5253640;28;20108;-72
2023/01/06 00:38:29;;;;;;;8.38;4.10;;;;;;;9.57;100.00;101713.66;5254203;28;20496;-72
2023/01/06 00:44:01;;;;;;;8.50;3.90;;;;;;;9.58;100.00;101715.38;5254193;28;20037;-72
2023/01/06 00:46:33;;;;;;;9.50;4.37;;;;;;;9.57;100.00;101708.41;5254291;28;20028;-72
2023/01/06 00:49:04;;;;;;;5.87;3.27;;;;;;;9.59;100.00;101717.06;5250789;28;20081;-71
2023/01/06 00:51:38;;;;;;;8.93;4.03;;;;;;;9.58;100.00;101717.97;5280172;28;20086;-71
2023/01/06 00:54:11;;;;;;;11.47;3.67;;;;;;;9.59;100.00;101709.22;5252940;28;20163;-71
2023/01/06 00:56:48;;;;;;;9.90;3.73;;;;;;;9.59;100.00;101714.44;5251081;28;20036;-72
2023/01/06 00:59:21;;;;;;;6.93;3.23;;;;;;;9.60;100.00;101713.53;5253270;28;20017;-73
2023/01/06 01:01:55;;;;;;;8.73;3.35;;;;;;;9.59;100.00;101716.19;5253803;28;20518;-73
2023/01/06 01:04:26;;;;;;;8.37;2.93;;;;;;;9.58;100.00;101717.97;5250142;28;20360;-73
2023/01/06 01:06:58;;;;;;;9.17;3.13;;;;;;;9.55;100.00;101705.88;5255319;28;20029;-71
2023/01/06 01:09:31;;;;;;;6.40;2.87;;;;;;;9.60;100.00;101712.69;5253932;28;20111;-74
2023/01/06 01:12:11;;;;;;;5.33;3.33;;;;;;;9.60;100.00;101713.53;5252763;28;20040;-73
2023/01/06 01:14:48;;;;;;;6.30;2.97;;;;;;;9.58;100.00;101704.06;5251079;28;20047;-73
2023/01/06 01:17:26;;;;;;;7.63;3.40;;;;;;;9.61;100.00;101709.16;5254479;28;20033;-73
2023/01/06 01:19:59;;;;;;;8.87;3.03;;;;;;;9.59;100.00;101706.59;5252908;28;20033;-73
2023/01/06 01:22:31;;;;;;;9.40;2.73;;;;;;;9.63;100.00;101704.72;5252506;28;20103;-72
2023/01/06 01:25:02;;;;;;;6.10;2.13;;;;;;;9.56;100.00;101696.28;5252747;28;20125;-73
2023/01/06 01:27:34;;;;;;;5.50;2.30;;;;;;;9.47;100.00;101679.19;5254619;28;20036;-73
2023/01/06 01:30:06;;;;;;;6.70;2.43;;;;;;;9.60;100.00;101697.81;5247550;28;20037;-73
2023/01/06 01:32:37;;;;;;;5.47;2.03;;;;;;;9.61;100.00;101698.69;5254659;28;20029;-73
2023/01/06 01:35:08;;;;;;;8.57;2.33;;;;;;;9.62;100.00;101689.91;5252186;28;20033;-71
2023/01/06 01:37:40;;;;;;;8.30;2.20;;;;;;;9.60;100.00;101689.97;5255046;28;20102;-74
2023/01/06 01:40:11;;;;;;;7.53;2.40;;;;;;;9.61;100.00;101688.22;5255125;28;20039;-74
2023/01/06 01:42:42;;;;;;;7.13;2.13;;;;;;;9.62;100.00;101685.53;5286614;28;20033;-72
2023/01/06 01:45:34;;;;;;;8.13;2.10;;;;;;;9.63;100.00;101684.66;5286749;28;20551;-74
2023/01/06 01:48:16;;;;;;;6.40;1.80;;;;;;;9.62;100.00;101669.00;5252971;28;20080;-74
2023/01/06 01:50:52;;;;;;;7.70;1.67;;;;;;;9.60;100.00;101669.06;5252739;28;20423;-74
2023/01/06 01:53:34;;;;;;;4.67;1.60;;;;;;;9.62;100.00;101667.22;5286065;28;20062;-72
2023/01/06 01:56:11;;;;;;;5.40;1.60;;;;;;;9.59;100.00;101661.28;5253342;28;20594;-74
2023/01/06 01:58:47;;;;;;;5.50;1.60;;;;;;;9.60;100.00;101655.97;5254262;28;20040;-72
2023/01/06 02:01:19;;;;;;;4.60;1.40;;;;;;;9.58;100.00;101643.91;5254147;28;20114;-74
2023/01/06 02:03:51;;;;;;;5.93;2.13;;;;;;;9.62;100.00;101659.38;5252881;28;20119;-73
2023/01/06 02:06:24;;;;;;;6.43;2.00;;;;;;;9.62;100.00;101653.28;5253061;28;20047;-73
2023/01/06 02:09:02;;;;;;;4.07;1.30;;;;;;;9.57;100.00;101650.88;5253146;28;20028;-73
2023/01/06 02:11:36;;;;;;;6.10;1.70;;;;;;;9.57;100.00;101650.88;5252571;22;20048;-74
2023/01/06 02:14:13;;;;;;;5.17;1.33;;;;;;;9.62;100.00;101651.53;5186419;28;20672;-74
2023/01/06 02:17:40;;;;;;;5.70;1.40;;;;;;;9.64;100.00;101657.56;5185640;28;20062;-73
2023/01/06 02:20:20;;;;;;;6.30;1.60;;;;;;;9.59;100.00;101658.66;5152223;28;20053;-73
2023/01/06 02:23:25;;;;;;;5.73;1.80;;;;;;;9.63;100.00;101655.88;5191841;28;20078;-74
2023/01/06 02:26:21;;;;;;;4.13;1.50;;;;;;;9.61;100.00;101644.63;5196574;28;20033;-74
2023/01/06 02:29:26;;;;;;;7.17;1.90;;;;;;;9.67;100.00;101644.34;5192140;28;20049;-72
2023/01/06 02:32:35;;;;;;;5.30;1.40;;;;;;;9.66;100.00;101634.81;5194215;28;20118;-73
2023/01/06 02:35:13;;;;;;;5.20;1.57;;;;;;;9.71;100.00;101633.75;5193645;28;20555;-72
2023/01/06 02:38:02;;;;;;;4.67;1.90;;;;;;;9.63;100.00;101619.25;5204080;28;20081;-69
2023/01/06 02:40:54;;;;;;;6.17;1.70;;;;;;;9.67;100.00;101615.56;5186379;28;20027;-71
2023/01/06 02:43:34;;;;;;;3.63;1.00;;;;;;;9.64;100.00;101618.31;5195185;28;20466;-72
2023/01/06 02:46:14;;;;;;;3.77;1.40;;;;;;;9.64;100.00;101609.63;5194613;28;20069;-73
2023/01/06 02:48:54;;;;;;;4.30;1.70;;;;;;;9.62;100.00;101604.47;5195542;28;20027;-72
2023/01/06 02:51:38;;;;;;;2.13;1.30;;;;;;;9.64;100.00;101601.78;5191069;28;20820;-73
2023/01/06 02:54:19;;;;;;;5.55;1.75;;;;;;;9.63;100.00;101600.94;5192560;28;20424;-72
2023/01/06 02:57:11;;;;;;;4.10;1.20;;;;;;;9.64;100.00;101583.47;5193921;28;20125;-72
2023/01/06 03:00:08;;;;;;;6.07;1.70;;;;;;;9.67;100.00;101593.78;5190919;28;20030;-72
2023/01/06 03:02:43;;;;;;;3.47;1.10;;;;;;;9.66;100.00;101587.72;5197514;28;20167;-72
2023/01/06 03:05:16;;;;;;;5.63;1.57;;;;;;;9.65;100.00;101587.81;5189466;28;20026;-72
2023/01/06 03:07:48;;;;;;;4.73;1.07;;;;;;;9.70;100.00;101584.97;5202529;28;20040;-73
2023/01/06 03:10:23;;;;;;;5.83;1.27;;;;;;;9.66;100.00;101589.47;5199945;28;20169;-71
2023/01/06 03:13:03;;;;;;;6.73;1.77;;;;;;;9.68;100.00;101582.44;5192516;28;20041;-72
2023/01/06 03:15:34;;;;;;;3.93;0.90;;;;;;;9.59;100.00;101569.75;5202078;28;20068;-73
2023/01/06 03:18:06;;;;;;;3.93;1.00;;;;;;;9.65;100.00;101574.72;5189631;28;20030;-73
2023/01/06 03:20:38;;;;;;;4.43;1.33;;;;;;;9.67;100.00;101578.97;5186028;28;20041;-75
2023/01/06 03:23:11;;;;;;;5.17;1.27;;;;;;;9.65;100.00;101578.16;5184240;28;20058;-73
2023/01/06 03:25:43;;;;;;;3.38;1.60;;;;;;;9.66;100.00;101572.03;5190884;28;20030;-74
2023/01/06 03:28:14;;;;;;;5.67;1.23;;;;;;;9.62;100.00;101561.75;5189504;28;20019;-73
2023/01/06 03:30:54;;;;;;;4.27;1.60;;;;;;;9.64;100.00;101576.47;5189411;28;20050;-71
2023/01/06 03:33:39;;;;;;;6.10;1.50;;;;;;;9.67;100.00;101578.97;5189578;28;20035;-72
2023/01/06 03:36:20;;;;;;;;;;;;;;;9.74;100.00;101579.53;5191175;28;20034;-70
2023/01/06 03:39:10;;;;;;;5.83;1.97;;;;;;;9.68;100.00;101580.66;5194286;28;20499;-74
2023/01/06 03:44:52;;;;;;;5.50;1.43;;;;;;;9.71;100.00;101560.50;5194899;28;20042;-72
2023/01/06 03:47:31;;;;;;;4.17;1.30;;;;;;;9.64;100.00;101552.94;5195721;28;20030;-74
2023/01/06 03:50:11;;;;;;;4.67;1.20;;;;;;;9.71;100.00;101573.59;5193607;28;20030;-73
2023/01/06 03:52:49;;;;;;;4.40;1.17;;;;;;;9.70;100.00;101579.75;5207567;28;20087;-74
2023/01/06 03:55:25;;;;;;;6.20;1.40;;;;;;;9.74;100.00;101568.22;5193564;28;20117;-74
2023/01/06 03:57:59;;;;;;;6.50;1.90;;;;;;;9.60;100.00;101548.75;5194274;28;20034;-74
2023/01/06 04:00:34;;;;;;;;;;;;;;;9.80;100.00;101566.19;5192944;28;20113;-75
2023/01/06 04:03:08;;;;;;;6.07;2.17;;;;;;;9.64;100.00;101557.31;5191266;28;20245;-73
2023/01/06 04:05:39;;;;;;;4.88;1.60;;;;;;;9.69;100.00;101557.97;5195707;28;20069;-74
2023/01/06 04:08:11;;;;;;;2.47;0.97;;;;;;;9.74;100.00;101552.53;5192526;28;20054;-73
2023/01/06 04:10:42;;;;;;;2.13;0.90;;;;;;;9.70;100.00;101556.19;5194017;28;20567;-74
2023/01/06 04:13:13;;;;;;;2.40;1.30;;;;;;;9.72;100.00;101544.72;5192868;28;20077;-74
2023/01/06 04:15:44;;;;;;;3.97;1.67;;;;;;;9.77;100.00;101544.56;5194133;28;20150;-71
2023/01/06 04:18:16;;;;;;;3.47;1.30;;;;;;;9.76;100.00;101537.59;5191813;28;20057;-75
2023/01/06 04:20:47;;;;;;;3.33;1.57;;;;;;;9.72;100.00;101541.28;5192900;28;20101;-71
2023/01/06 04:23:18;;;;;;;6.13;1.67;;;;;;;9.64;100.00;101505.00;5188351;28;20058;-74
2023/01/06 04:25:50;;;;;;;8.60;2.20;;;;;;;9.73;100.00;101520.28;5195844;28;20041;-74
2023/01/06 04:28:21;;;;;;;7.37;1.93;;;;;;;9.69;100.00;101513.50;5194621;28;20104;-75
2023/01/06 04:30:57;;;;;;;4.10;1.10;;;;;;;9.73;100.00;101520.28;5193295;28;20034;-72
2023/01/06 04:33:28;;;;;;;5.93;1.77;;;;;;;9.74;100.00;101515.91;5187921;28;20065;-74
2023/01/06 04:36:00;;;;;;;4.00;1.33;;;;;;;9.73;100.00;101504.59;5191065;28;20540;-74
2023/01/06 04:38:32;;;;;;;3.20;1.53;;;;;;;9.74;100.00;101505.47;5187748;28;20034;-73
2023/01/06 04:41:03;;;;;;;2.97;0.93;;;;;;;9.74;100.00;101501.06;5200437;28;20041;-72
2023/01/06 04:43:34;;;;;;;2.63;1.03;;;;;;;9.77;100.00;101497.47;5190757;28;20057;-75
2023/01/06 04:46:06;;;;;;;6.23;1.30;;;;;;;9.75;100.00;101492.31;5188166;28;20497;-74
2023/01/06 04:48:37;;;;;;;4.77;0.90;;;;;;;9.78;100.00;101486.06;5189086;28;20073;-73
2023/01/06 04:51:10;;;;;;;2.17;1.00;;;;;;;9.73;100.00;101473.22;5192032;28;20354;-71
2023/01/06 04:53:41;;;;;;;2.03;0.90;;;;;;;9.73;100.00;101477.59;5203619;28;20037;-71
2023/01/06 04:56:13;;;;;;;2.40;0.77;;;;;;;9.82;100.00;101489.38;5183568;28;20045;-72
2023/01/06 04:58:44;;;;;;;5.67;1.07;;;;;;;9.73;100.00;101478.44;5198088;28;20030;-73
2023/01/06 05:01:15;;;;;;;2.80;0.90;;;;;;;9.76;100.00;101490.50;5207825;28;20029;-73
2023/01/06 05:03:46;;;;;;;1.83;0.70;;;;;;;9.77;100.00;101487.81;5211884;28;20125;-74
2023/01/06 05:06:18;;;;;;;2.63;0.90;;;;;;;9.78;100.00;101475.59;5194869;28;20030;-70
2023/01/06 05:08:50;;;;;;;4.67;1.23;;;;;;;9.77;100.00;101481.78;5193349;28;20035;-74
2023/01/06 05:11:23;;;;;;;2.73;1.00;;;;;;;9.74;100.00;101466.22;5194166;28;20600;-74
2023/01/06 05:13:54;;;;;;;3.57;0.73;;;;;;;9.76;100.00;101474.81;5193484;28;20505;-73
2023/01/06 05:16:31;;;;;;;4.30;1.00;;;;;;;9.77;100.00;101468.69;5197214;28;20024;-75
2023/01/06 05:19:02;;;;;;;5.20;1.03;;;;;;;9.77;100.00;101455.59;5203075;28;20657;-73
2023/01/06 05:21:33;;;;;;;3.80;0.70;;;;;;;9.71;100.00;101463.72;5193032;28;20113;-74
2023/01/06 05:24:05;;;;;;;3.80;1.00;;;;;;;9.77;100.00;101479.16;5192947;28;20556;-70
2023/01/06 05:26:36;;;;;;;3.47;1.17;;;;;;;9.75;100.00;101478.38;5197805;28;20044;-74
2023/01/06 05:29:14;;;;;;;3.30;1.10;;;;;;;9.73;100.00;101477.59;5191816;28;20030;-74
2023/01/06 05:31:45;;;;;;;1.60;0.97;;;;;;;9.72;100.00;101476.72;5202908;28;20030;-73
2023/01/06 05:34:17;;;;;;;2.60;0.80;;;;;;;9.71;100.00;101479.41;5185103;28;20047;-72
2023/01/06 05:36:48;;;;;;;4.47;1.63;;;;;;;9.75;100.00;101483.59;5184941;28;20031;-74
2023/01/06 05:39:19;;;;;;;2.00;0.70;;;;;;;9.72;100.00;101484.56;5197910;28;20036;-73
2023/01/06 05:41:50;;;;;;;4.50;1.00;;;;;;;9.72;100.00;101486.38;5190822;28;20715;-71
2023/01/06 05:44:22;;;;;;;3.33;0.83;;;;;;;9.68;100.00;101462.97;5191660;28;20026;-73
2023/01/06 05:46:53;;;;;;;1.50;0.70;;;;;;;9.67;100.00;101468.25;5193793;28;20066;-73
2023/01/06 05:49:24;;;;;;;2.87;0.90;;;;;;;9.77;100.00;101500.06;5190490;28;20026;-72
2023/01/06 05:51:55;;;;;;;2.90;0.80;;;;;;;9.77;100.00;101485.22;5205720;28;20117;-74
2023/01/06 05:54:27;;;;;;;3.57;1.07;;;;;;;9.72;100.00;101481.97;5190897;28;20045;-73
2023/01/06 05:56:58;;;;;;;1.90;1.10;;;;;;;9.79;100.00;101483.38;5186139;28;20034;-73
2023/01/06 05:59:29;;;;;;;2.03;0.73;;;;;;;9.76;100.00;101483.53;5188518;28;20026;-73
2023/01/06 06:02:00;;;;;;;3.77;1.10;;;;;;;9.78;100.00;101479.06;5190536;28;20117;-73
2023/01/06 06:04:32;;;;;;;2.60;1.00;;;;;;;9.76;100.00;101487.91;5193071;28;20571;-71
2023/01/06 06:07:03;;;;;;;2.07;0.70;;;;;;;9.82;100.00;101492.88;5189135;28;20365;-74
2023/01/06 06:09:34;;;;;;;3.10;1.03;;;;;;;9.74;100.00;101476.69;5202673;28;20169;-72
2023/01/06 06:12:06;;;;;;;3.77;1.03;;;;;;;9.81;100.00;101480.69;5185867;28;20045;-73
2023/01/06 06:14:37;;;;;;;4.13;0.90;;;;;;;9.75;100.00;101484.47;5189512;28;20030;-73
2023/01/06 06:17:08;;;;;;;2.00;0.80;;;;;;;9.81;100.00;101480.69;5192167;28;20496;-71
2023/01/06 06:19:39;;;;;;;2.50;1.53;;;;;;;9.79;100.00;101477.31;5190229;28;20057;-74
2023/01/06 06:22:11;;;;;;;2.33;0.83;;;;;;;9.77;100.00;101492.22;5192551;28;20224;-73
2023/01/06 06:24:42;;;;;;;3.83;1.17;;;;;;;9.76;100.00;101480.06;5191396;28;20433;-72
2023/01/06 06:27:14;;;;;;;2.63;1.30;;;;;;;9.77;100.00;101484.38;5190967;28;20032;-71
2023/01/06 06:29:45;;;;;;;3.67;1.10;;;;;;;9.79;100.00;101486.00;5199344;28;20361;-73
2023/01/06 06:32:16;;;;;;;3.07;1.30;;;;;;;9.80;100.00;101487.72;5180239;28;20026;-72
2023/01/06 06:34:47;;;;;;;2.43;1.00;;;;;;;9.82;100.00;101497.25;5191439;28;20030;-73
2023/01/06 06:37:19;;;;;;;2.37;0.80;;;;;;;9.79;100.00;101483.38;5187526;28;20058;-73
2023/01/06 06:39:50;;;;;;;8.23;1.50;;;;;;;9.73;100.00;101483.66;5189004;28;20034;-71
2023/01/06 06:42:21;;;;;;;2.87;1.10;;;;;;;9.81;100.00;101485.91;5200371;28;20065;-73
2023/01/06 06:44:53;;;;;;;3.40;1.10;;;;;;;9.83;100.00;101480.66;5196748;28;20050;-72
2023/01/06 06:47:24;;;;;;;4.33;1.10;;;;;;;9.74;100.00;101479.31;5194521;28;20054;-73
2023/01/06 06:49:55;;;;;;;1.93;0.80;;;;;;;9.83;100.00;101485.88;5190938;28;20034;-73
2023/01/06 06:52:26;;;;;;;4.43;1.00;;;;;;;9.76;100.00;101485.28;5191800;28;20085;-71
2023/01/06 06:54:58;;;;;;;5.23;1.40;;;;;;;9.78;100.00;101481.69;5189904;28;20121;-73
2023/01/06 06:57:29;;;;;;;1.87;1.00;;;;;;;9.67;100.00;101479.56;5185676;28;20089;-73
2023/01/06 07:00:00;;;;;;;3.60;1.13;;;;;;;9.67;100.00;101490.03;5201005;28;20029;-73
2023/01/06 07:02:31;;;;;;;3.50;1.10;;;;;;;9.68;100.00;101490.88;5184894;28;20078;-73
2023/01/06 07:05:03;;;;;;;4.70;0.97;;;;;;;9.68;100.00;101494.34;5191334;28;20022;-71
2023/01/06 07:07:34;;;;;;;3.53;1.23;;;;;;;9.65;100.00;101498.88;5187230;28;20054;-73
2023/01/06 07:10:06;;;;;;;6.80;1.50;;;;;;;9.65;100.00;101506.72;5198384;28;20025;-73
2023/01/06 07:12:37;;;;;;;5.00;1.23;;;;;;;9.62;100.00;101504.22;5191580;28;20050;-71
2023/01/06 07:15:09;;;;;;;1.97;1.20;;;;;;;9.60;100.00;101506.91;5192324;28;20065;-73
2023/01/06 07:17:41;;;;;;;4.40;1.57;;;;;;;9.61;100.00;101506.00;5182595;28;20489;-74
2023/01/06 07:20:12;;;;;;;5.33;1.60;;;;;;;9.59;100.00;101504.38;5181497;28;20050;-71
2023/01/06 07:22:43;;;;;;;3.53;1.33;;;;;;;9.58;100.00;101511.38;5195169;28;20085;-72
2023/01/06 07:25:14;;;;;;;2.57;1.53;;;;;;;9.50;100.00;101492.56;5195482;28;20105;-72
2023/01/06 07:27:46;;;;;;;3.37;1.20;;;;;;;9.54;100.00;101502.81;5192573;28;20023;-71
2023/01/06 07:30:17;;;;;;;3.33;1.10;;;;;;;9.53;100.00;101502.91;5187672;28;20058;-73
2023/01/06 07:32:49;;;;;;;5.17;1.83;;;;;;;9.53;100.00;101503.72;5191649;28;20053;-72
2023/01/06 07:35:20;;;;;;;4.37;1.40;;;;;;;9.53;100.00;101490.66;5191147;28;20034;-73
2023/01/06 07:37:51;;;;;;;6.20;1.37;;;;;;;9.43;100.00;101492.84;5192636;28;20037;-73
2023/01/06 07:40:23;;;;;;;3.20;1.27;;;;;;;9.51;100.00;101502.94;5195044;28;20560;-71
2023/01/06 07:42:54;;;;;;;2.37;1.50;;;;;;;9.44;100.00;101504.97;5191382;28;20493;-73
2023/01/06 07:45:25;;;;;;;5.80;2.23;;;;;;;9.45;100.00;101505.84;5190588;28;20054;-73
2023/01/06 07:47:56;;;;;;;6.23;1.60;;;;;;;9.46;100.00;101520.59;5191173;28;20397;-73
2023/01/06 07:50:29;;;;;;;4.43;1.60;;;;;;;9.46;100.00;101530.22;5187271;28;20070;-73
2023/01/06 07:53:01;;;;;;;2.77;1.30;;;;;;;9.49;100.00;101523.09;5208983;28;20345;-73
2023/01/06 07:55:32;;;;;;;3.27;1.40;;;;;;;9.47;100.00;101530.16;5192643;28;20030;-74
2023/01/06 07:58:05;;;;;;;2.33;1.40;;;;;;;9.50;100.00;101544.84;5195896;28;20133;-71
2023/01/06 08:00:37;;;;;;;2.90;1.13;;;;;;;9.51;100.00;101546.56;5201001;28;20406;-74
2023/01/06 08:03:10;;;;;;;3.27;1.20;;;;;;;9.56;100.00;101547.22;5191564;28;20058;-71
2023/01/06 08:05:41;;;;;;;3.93;1.40;;;;;;;9.50;100.00;101544.84;5193576;28;20413;-75
2023/01/06 08:08:13;;;;;;;2.67;1.13;;;;;;;9.55;100.00;101548.09;5186791;28;20144;-73
2023/01/06 08:10:44;;;;;;;2.70;1.40;;;;;;;9.56;100.00;101544.59;5197573;28;20061;-71
2023/01/06 08:13:15;;;;;;;2.30;1.20;;;;;;;9.55;100.00;101548.09;5192555;28;20105;-73
2023/01/06 08:15:50;;;;;;;4.80;1.30;;;;;;;9.53;100.00;101549.97;5193467;28;20041;-74
2023/01/06 08:18:21;;;;;;;1.80;1.10;;;;;;;9.56;100.00;101565.50;5182582;28;20026;-72
2023/01/06 08:20:58;;;;;;;3.90;1.43;;;;;;;9.59;100.00;101561.91;5190091;28;20034;-73
2023/01/06 08:23:30;;;;;;;1.70;1.20;;;;;;;9.58;100.00;101558.47;5183243;28;20034;-73
2023/01/06 08:26:12;;;;;;;2.80;1.50;;;;;;;9.59;100.00;101560.16;5192172;28;20026;-73
2023/01/06 08:28:44;;;;;;;3.00;1.43;;;;;;;9.62;100.00;101569.59;5193412;28;20110;-72
2023/01/06 08:31:18;;;;;;;2.93;1.40;;;;;;;9.56;100.00;101565.50;5194155;28;20125;-74
2023/01/06 08:33:50;;;;;;;1.42;1.13;;;;;;;9.59;100.00;101564.50;5193009;28;20049;-74
2023/01/06 08:36:23;;;;;;;3.23;1.80;;;;;;;9.61;100.00;101576.63;5189651;28;20033;-72
2023/01/06 08:38:54;;;;;;;2.40;1.13;;;;;;;9.61;100.00;101574.00;5192467;28;20033;-74
2023/01/06 08:41:26;;;;;;;6.10;1.40;;;;;;;9.59;100.00;101581.06;5190947;28;20026;-72
2023/01/06 08:43:57;;;;;;;1.70;1.40;;;;;;;9.64;100.00;101589.56;5192249;28;20032;-73
2023/01/06 08:46:28;;;;;;;2.23;1.40;;;;;;;9.65;100.00;101601.72;5188829;28;20019;-74
2023/01/06 08:49:00;;;;;;;2.97;1.20;;;;;;;9.68;100.00;101595.50;5192709;28;20026;-75
2023/01/06 08:51:31;;;;;;;2.70;1.80;;;;;;;9.63;100.00;101598.34;5186348;28;20023;-72
2023/01/06 08:54:02;;;;;;;4.07;1.70;;;;;;;9.72;100.00;101604.91;5191316;28;20049;-72
2023/01/06 08:56:34;;;;;;;4.00;2.03;;;;;;;9.69;100.00;101612.88;5181566;28;20038;-74
2023/01/06 08:59:05;;;;;;;2.23;1.50;;;;;;;9.63;100.00;101602.69;5189686;28;20100;-74
2023/01/06 09:01:36;;;;;;;3.63;2.10;;;;;;;9.62;100.00;101607.06;5201994;28;20045;-73
2023/01/06 09:04:09;;;;;;;2.80;1.87;;;;;;;9.70;100.00;101630.31;5197698;28;20053;-74
2023/01/06 09:06:42;;;;;;;3.03;1.60;;;;;;;9.72;100.00;101631.06;5199666;28;20026;-70
2023/01/06 09:09:13;;;;;;;3.33;2.00;;;;;;;9.73;100.00;101635.38;5190168;28;20026;-71
2023/01/06 09:11:45;;;;;;;6.10;2.73;;;;;;;9.76;100.00;101637.00;5185486;28;20057;-71
2023/01/06 09:14:16;;;;;;;4.03;1.87;;;;;;;9.66;100.00;101619.13;5191763;28;20030;-70
2023/01/06 09:16:48;;;;;;;4.27;2.60;;;;;;;9.74;100.00;101633.63;5202958;28;20030;-72
2023/01/06 09:19:19;;;;;;;4.93;2.50;;;;;;;9.80;100.00;101636.81;5199052;28;20062;-72
2023/01/06 09:21:50;;;;;;;4.97;2.43;;;;;;;9.83;100.00;101640.22;5192895;28;20041;-72
2023/01/06 09:24:22;;;;;;;3.20;2.90;;;;;;;9.82;100.00;101649.84;5193307;28;20038;-73
2023/01/06 09:26:53;;;;;;;6.57;3.50;;;;;;;9.85;100.00;101649.69;5187398;28;20022;-70
2023/01/06 09:29:24;;;;;;;3.47;3.17;;;;;;;9.83;100.00;101654.13;5193027;28;20032;-73
2023/01/06 09:31:55;;;;;;;3.90;2.93;;;;;;;9.91;100.00;101659.06;5193885;28;20118;-73
2023/01/06 09:34:27;;;;;;;5.93;2.80;;;;;;;9.86;100.00;101664.47;5191372;28;20057;-71
2023/01/06 09:36:58;;;;;;;3.57;3.17;;;;;;;9.80;100.00;101657.75;5186926;28;20038;-73
2023/01/06 09:39:29;;;;;;;3.57;2.97;;;;;;;9.89;100.00;101669.59;5190607;28;20030;-71
2023/01/06 09:42:16;;;;;;;4.20;2.70;;;;;;;9.95;100.00;101672.84;5184319;28;20031;-74
2023/01/06 09:44:53;;;;;;;5.70;3.03;;;;;;;9.93;100.00;101678.16;5185415;28;20034;-73
2023/01/06 09:47:34;;;;;;;4.13;3.00;;;;;;;9.93;100.00;101673.75;5191081;28;20030;-69
2023/01/06 09:50:14;;;;;;;4.70;3.20;;;;;;;9.96;100.00;101674.53;5184470;28;20022;-74
2023/01/06 09:52:53;;;;;;;7.07;3.63;;;;;;;9.96;100.00;101682.38;5190775;28;20492;-73
2023/01/06 09:55:29;;;;;;;5.13;3.17;;;;;;;10.02;100.00;101687.34;5188186;28;20044;-73
2023/01/06 09:58:11;;;;;;;4.67;3.37;;;;;;;10.06;100.00;101683.69;5183055;28;20093;-71
2023/01/06 10:00:53;;;;;;;9.00;3.30;;;;;;;10.12;100.00;101704.34;5190458;28;20038;-70
2023/01/06 10:03:26;;;;;;;13.93;4.57;;;;;;;10.13;100.00;101695.59;5191371;28;20019;-71
2023/01/06 10:06:30;;;;;;;7.97;3.97;;;;;;;10.21;100.00;101697.84;5190983;28;20678;-71
2023/01/06 10:09:24;;;;;;;6.38;3.92;;;;;;;10.19;100.00;101694.47;5176804;28;20441;-71
2023/01/06 10:12:23;;;;;;;5.73;4.10;;;;;;;10.21;100.00;101694.41;5185897;28;20053;-73
2023/01/06 10:15:27;;;;;;;7.30;3.77;;;;;;;10.13;100.00;101679.88;5187538;28;20027;-73
2023/01/06 10:18:31;;;;;;;4.47;3.17;;;;;;;10.23;100.00;101695.16;5187700;28;20382;-70
2023/01/06 10:21:12;;;;;;;6.83;3.87;;;;;;;10.20;100.00;101700.53;5181884;28;20501;-72
2023/01/06 10:24:22;;;;;;;5.27;3.33;;;;;;;10.22;100.00;101699.56;5189130;28;20037;-72
2023/01/06 10:26:58;;;;;;;5.27;3.40;;;;;;;10.22;100.00;101696.09;5188070;28;20026;-70
2023/01/06 10:29:34;;;;;;;6.67;3.07;;;;;;;10.19;100.00;101691.00;5189174;28;20030;-72
2023/01/06 10:32:12;;;;;;;5.67;3.10;;;;;;;10.19;100.00;101691.00;5189647;28;20027;-70
2023/01/06 10:34:47;;;;;;;6.87;3.10;;;;;;;10.21;100.00;101691.78;5185110;28;20105;-73
2023/01/06 10:37:38;;;;;;;4.20;2.97;;;;;;;10.22;100.00;101673.38;5190352;28;20034;-75
2023/01/06 10:40:18;;;;;;;5.13;2.87;;;;;;;10.35;100.00;101684.13;5188477;28;20058;-72
2023/01/06 10:43:01;;;;;;;3.80;2.87;;;;;;;10.45;100.00;101689.81;5188397;28;20556;-76
2023/01/06 10:45:41;;;;;;;7.17;4.73;;;;;;;10.36;100.00;101685.84;5187007;28;20772;-76
2023/01/06 10:48:23;;;;;;;7.07;3.87;;;;;;;10.44;100.00;101692.53;5189920;28;20409;-78
2023/01/06 10:50:56;;;;;;;6.23;4.37;;;;;;;10.39;100.00;101682.22;5189248;28;20037;-79
2023/01/06 10:53:27;;;;;;;7.20;4.90;;;;;;;10.41;100.00;101683.88;5193460;28;20049;-70
2023/01/06 10:56:00;;;;;;;7.67;5.53;;;;;;;10.43;100.00;101690.81;5190423;28;20086;-77
2023/01/06 10:58:52;;;;;;;8.43;5.40;;;;;;;10.41;100.00;101689.13;5190247;28;20041;-73
2023/01/06 11:01:26;;;;;;;6.80;5.77;;;;;;;10.36;100.00;101685.00;5190574;28;20014;-74
2023/01/06 11:04:10;;;;;;;9.37;6.57;;;;;;;10.39;100.00;101690.09;5190060;28;20034;-73
2023/01/06 11:07:00;;;;;;;5.90;5.30;;;;;;;10.37;100.00;101687.53;5190172;28;20121;-74
2023/01/06 11:09:35;;;;;;;7.83;5.80;;;;;;;10.35;100.00;101689.38;5192487;28;20042;-71
2023/01/06 11:12:16;;;;;;;7.10;5.70;;;;;;;10.39;100.00;101696.19;5191567;28;20069;-75
2023/01/06 11:14:56;;;;;;;7.07;5.80;;;;;;;10.40;100.00;101684.78;5199475;28;20736;-75
2023/01/06 11:17:28;;;;;;;10.53;7.20;;;;;;;10.46;100.00;101685.41;5196676;28;20030;-72
2023/01/06 11:20:12;;;;;;;7.53;6.30;;;;;;;10.54;100.00;101680.72;5195059;28;20085;-71
2023/01/06 11:22:44;;;;;;;6.77;6.07;;;;;;;10.60;100.00;101683.06;5195452;28;20032;-73
2023/01/06 11:25:22;;;;;;;9.53;6.50;;;;;;;10.61;100.00;101689.97;5193078;28;20022;-77
2023/01/06 11:28:18;;;;;;;8.30;5.80;;;;;;;10.71;100.00;101685.19;5205329;28;20035;-77
2023/01/06 11:31:21;;;;;;;10.33;5.00;;;;;;;10.71;100.00;101689.56;5193162;28;20547;-77
2023/01/06 11:33:55;;;;;;;6.30;4.50;;;;;;;10.76;100.00;101691.06;5158014;28;20038;-76
2023/01/06 11:36:32;;;;;;;17.30;4.80;;;;;;;10.73;100.00;101701.69;5190030;28;20034;-74
2023/01/06 11:39:13;;;;;;;8.57;4.53;;;;;;;10.71;100.00;101685.19;5194350;28;20029;-74
2023/01/06 11:41:48;;;;;;;19.97;6.23;;;;;;;10.70;100.00;101693.13;5181866;28;20035;-74
2023/01/06 11:44:35;;;;;;;7.37;4.10;;;;;;;10.67;100.00;101688.00;5188267;28;20031;-75
2023/01/06 11:47:12;;;;;;;6.93;3.47;;;;;;;10.60;100.00;101680.44;5191334;28;20026;-77
2023/01/06 11:49:55;;;;;;;9.97;4.63;;;;;;;10.55;100.00;101677.19;5194875;28;20034;-74
2023/01/06 11:52:30;;;;;;;6.17;2.50;;;;;;;10.52;100.00;101678.16;5192915;28;20661;-75
2023/01/06 11:55:04;;;;;;;8.77;3.53;;;;;;;10.51;100.00;101673.00;5194010;28;20536;-72
2023/01/06 11:57:54;;;;;;;7.20;2.92;;;;;;;10.53;100.00;101674.63;5193584;28;20033;-75
2023/01/06 12:00:44;;;;;;;10.43;2.77;;;;;;;10.50;100.00;101668.69;5188961;28;20029;-72
2023/01/06 12:03:18;;;;;;;10.33;3.13;;;;;;;10.46;100.00;101669.69;5190653;28;20030;-71
2023/01/06 12:05:55;;;;;;;6.63;2.75;;;;;;;10.47;100.00;101672.28;5193639;28;20022;-70
2023/01/06 12:08:50;;;;;;;5.13;2.70;;;;;;;10.49;100.00;101662.59;5188603;28;20492;-72